Time;durP1;ratioP1;P1;durP2;ratioP2;P2;SDS_P1;SDS_P2;PMS_P1;PMS_P2;Temp;Humidity;BMP_temperature;BMP_pressure;BME280_temperature;BME280_humidity;BME280_pressure;Samples;Min_cycle;Max_cycle;Signal;HPM_P1;HPM_P2
2022/09/17 08:02:54;;;;;;;7.50;2.97;;;19.80;99.90;;;;;;5088345;28;20549;-63
2022/09/17 08:05:21;;;;;;;12.73;5.10;;;19.70;99.90;;;;;;5069071;28;20439;-62
2022/09/17 08:07:50;;;;;;;4.60;2.70;;;19.80;99.90;;;;;;5068957;28;20526;-60
2022/09/17 08:10:20;;;;;;;8.10;3.17;;;19.70;99.90;;;;;;5068878;28;20521;-61
2022/09/17 08:12:47;;;;;;;8.27;2.87;;;19.70;99.90;;;;;;5086925;28;20445;-62
2022/09/17 08:17:43;;;;;;;6.60;3.70;;;19.80;99.90;;;;;;5043262;23;20530;-65
2022/09/17 08:20:12;;;;;;;6.03;3.07;;;19.80;99.90;;;;;;5027746;28;20813;-64
2022/09/17 08:22:39;;;;;;;6.07;4.63;;;19.80;99.90;;;;;;5028122;28;20496;-67
2022/09/17 08:25:06;;;;;;;9.37;3.47;;;19.80;99.90;;;;;;5029619;28;20445;-65
2022/09/17 08:27:34;;;;;;;8.20;3.17;;;19.80;99.90;;;;;;5029129;28;20553;-65
2022/09/17 08:30:00;;;;;;;9.20;2.90;;;19.80;99.90;;;;;;5029036;28;20472;-65
2022/09/17 08:32:29;;;;;;;9.90;3.40;;;19.80;99.90;;;;;;5028316;28;20873;-65
2022/09/17 08:34:56;;;;;;;9.67;4.23;;;19.80;99.90;;;;;;5028645;28;20445;-63
2022/09/17 08:37:26;;;;;;;7.30;1.97;;;19.80;99.90;;;;;;5028531;28;21071;-62
2022/09/17 08:39:53;;;;;;;5.37;2.87;;;19.80;99.90;;;;;;5028566;28;20543;-64
2022/09/17 08:42:27;;;;;;;6.70;2.27;;;19.80;99.90;;;;;;5027828;28;20504;-68
2022/09/17 08:44:56;;;;;;;6.83;2.60;;;19.80;99.90;;;;;;5028427;28;20532;-66
2022/09/17 08:47:26;;;;;;;9.80;3.80;;;19.80;99.90;;;;;;5028223;28;20552;-65
2022/09/17 08:49:56;;;;;;;7.30;2.90;;;19.80;99.90;;;;;;5028345;28;20456;-66
2022/09/17 08:52:58;;;;;;;4.27;2.40;;;19.80;99.90;;;;;;5027744;28;20870;-66
2022/09/17 08:55:33;;;;;;;6.73;2.70;;;19.80;99.90;;;;;;5008373;28;20464;-67
2022/09/17 08:58:13;;;;;;;11.50;3.30;;;19.80;99.90;;;;;;5020499;28;20818;-65
2022/09/17 09:00:46;;;;;;;6.20;2.60;;;19.80;99.90;;;;;;5027366;28;20452;-66
2022/09/17 09:03:28;;;;;;;5.07;2.77;;;19.80;99.90;;;;;;5027700;28;20448;-65
2022/09/17 09:05:55;;;;;;;7.73;3.80;;;19.80;99.90;;;;;;5028051;28;20468;-66
2022/09/17 09:08:30;;;;;;;7.63;2.53;;;19.80;99.90;;;;;;5027669;28;20441;-64
2022/09/17 09:10:58;;;;;;;6.47;2.80;;;19.80;99.90;;;;;;5027956;28;20445;-67
2022/09/17 09:13:28;;;;;;;4.50;2.20;;;19.80;99.90;;;;;;5018476;28;20508;-66
2022/09/17 09:15:59;;;;;;;6.10;1.90;;;19.80;99.90;;;;;;5014616;28;20481;-67
2022/09/17 09:18:29;;;;;;;5.47;2.50;;;19.80;99.90;;;;;;5014452;28;20445;-66
2022/09/17 09:21:07;;;;;;;4.93;2.50;;;19.80;99.90;;;;;;5014695;28;20446;-64
2022/09/17 09:23:45;;;;;;;6.17;2.00;;;19.80;99.90;;;;;;5014426;28;20508;-64
2022/09/17 09:26:17;;;;;;;8.57;2.33;;;19.80;99.90;;;;;;5014224;28;20473;-67
2022/09/17 09:29:05;;;;;;;3.53;2.57;;;19.80;99.90;;;;;;5014534;28;20438;-67
2022/09/17 09:31:51;;;;;;;2.67;1.50;;;19.90;99.90;;;;;;5014234;28;20932;-67
2022/09/17 09:34:18;;;;;;;3.97;2.43;;;19.90;99.90;;;;;;5014266;28;20450;-67
2022/09/17 09:36:46;;;;;;;9.53;1.50;;;19.90;99.90;;;;;;5014037;28;20906;-67
2022/09/17 09:39:20;;;;;;;4.00;1.67;;;19.90;99.90;;;;;;5014342;28;20448;-67
2022/09/17 09:41:53;;;;;;;5.53;2.50;;;19.90;99.90;;;;;;5013931;28;20485;-67
2022/09/17 09:44:20;;;;;;;1.43;1.10;;;20.00;99.90;;;;;;5014144;28;20537;-67
2022/09/17 09:47:04;;;;;;;2.47;2.07;;;20.00;99.90;;;;;;5014029;28;20501;-67
2022/09/17 09:49:45;;;;;;;4.13;2.40;;;19.90;99.90;;;;;;5013972;28;20450;-67
2022/09/17 09:52:24;;;;;;;1.97;1.47;;;20.00;99.90;;;;;;5013834;28;20442;-67
2022/09/17 09:55:17;;;;;;;4.50;1.53;;;20.00;99.90;;;;;;5013945;28;20446;-67
2022/09/17 09:57:47;;;;;;;2.93;1.10;;;20.00;99.90;;;;;;5013889;28;20965;-67
2022/09/17 10:00:29;;;;;;;1.93;1.37;;;20.00;99.90;;;;;;5013815;28;20529;-66
2022/09/17 10:03:03;;;;;;;2.40;1.83;;;20.00;99.90;;;;;;5013532;28;20485;-67
2022/09/17 10:05:30;;;;;;;2.33;2.13;;;20.00;99.90;;;;;;5013655;28;21026;-67
2022/09/17 10:07:57;;;;;;;6.10;1.70;;;20.00;99.90;;;;;;5013759;28;20537;-67
2022/09/17 10:10:25;;;;;;;4.20;2.10;;;20.00;99.90;;;;;;5013662;28;20541;-67
2022/09/17 10:13:06;;;;;;;5.67;2.27;;;20.00;99.90;;;;;;5013313;28;20513;-67
2022/09/17 10:15:33;;;;;;;4.67;1.40;;;20.00;99.90;;;;;;5013476;28;20811;-67
2022/09/17 10:18:16;;;;;;;1.43;1.23;;;20.00;99.90;;;;;;5013516;28;20541;-67
2022/09/17 10:20:54;;;;;;;2.40;1.10;;;20.00;99.90;;;;;;5013541;28;20945;-67
2022/09/17 10:23:22;;;;;;;3.50;1.70;;;20.00;99.90;;;;;;5013109;28;20592;-67
2022/09/17 10:25:54;;;;;;;5.17;2.83;;;20.00;99.90;;;;;;5012472;28;20462;-66
2022/09/17 10:28:43;;;;;;;2.83;1.23;;;20.00;99.90;;;;;;5013395;28;20525;-66
2022/09/17 10:31:10;;;;;;;1.67;0.93;;;19.90;99.90;;;;;;5013269;28;20453;-67
2022/09/17 10:33:41;;;;;;;2.10;1.40;;;20.00;99.90;;;;;;5013180;28;20862;-67
2022/09/17 10:36:12;;;;;;;1.90;1.40;;;19.90;99.90;;;;;;5013135;28;20548;-67
2022/09/17 10:38:40;;;;;;;2.87;1.20;;;20.00;99.90;;;;;;5013289;28;20481;-67
2022/09/17 10:41:13;;;;;;;2.07;1.70;;;20.00;99.90;;;;;;5013267;28;20442;-67
2022/09/17 10:43:41;;;;;;;2.93;1.53;;;19.90;99.90;;;;;;5013118;28;20446;-66
2022/09/17 10:46:10;;;;;;;2.20;1.10;;;19.90;99.90;;;;;;5012875;28;20461;-67
2022/09/17 10:48:42;;;;;;;1.10;0.90;;;20.00;99.90;;;;;;5013013;28;20442;-66
2022/09/17 10:51:11;;;;;;;1.27;1.10;;;20.00;99.90;;;;;;5013067;28;20456;-66
2022/09/17 10:54:13;;;;;;;2.67;1.77;;;20.00;99.90;;;;;;5012770;28;20448;-67
2022/09/17 10:56:48;;;;;;;1.93;1.40;;;20.00;99.90;;;;;;5012761;28;20474;-67
2022/09/17 10:59:40;;;;;;;1.37;1.00;;;20.00;99.90;;;;;;5012836;28;20471;-66
2022/09/17 11:02:31;;;;;;;3.30;0.80;;;20.00;99.90;;;;;;5012501;28;20488;-67
2022/09/17 11:05:06;;;;;;;1.50;1.00;;;20.00;99.90;;;;;;5012720;28;20456;-67
2022/09/17 11:07:40;;;;;;;2.00;1.80;;;20.00;99.90;;;;;;5012696;28;20556;-67
2022/09/17 11:10:14;;;;;;;1.73;1.00;;;20.00;99.90;;;;;;5012573;28;20485;-67
2022/09/17 11:12:57;;;;;;;1.57;0.90;;;20.00;99.90;;;;;;5012298;28;20524;-66
2022/09/17 11:15:35;;;;;;;1.57;0.90;;;20.00;99.90;;;;;;5012304;28;20806;-66
2022/09/17 11:18:24;;;;;;;1.03;1.03;;;20.00;99.90;;;;;;5012606;28;20484;-67
2022/09/17 11:21:07;;;;;;;2.17;1.20;;;20.00;99.90;;;;;;5012560;28;20521;-66
2022/09/17 11:23:58;;;;;;;0.80;0.80;;;20.00;99.90;;;;;;5012195;28;20488;-67
2022/09/17 11:26:32;;;;;;;0.93;0.80;;;20.00;99.90;;;;;;5009377;28;20928;-67
2022/09/17 11:29:11;;;;;;;0.70;0.70;;;20.00;99.90;;;;;;5012418;28;20483;-67
2022/09/17 11:31:47;;;;;;;1.80;1.07;;;20.00;99.90;;;;;;5012348;28;20533;-65
2022/09/17 11:34:31;;;;;;;1.83;0.73;;;20.00;99.90;;;;;;5012168;28;20529;-67
2022/09/17 11:37:04;;;;;;;1.37;0.80;;;20.00;99.90;;;;;;5011892;28;20498;-67
2022/09/17 11:39:38;;;;;;;1.03;0.87;;;20.00;99.90;;;;;;5012141;28;20460;-67
2022/09/17 11:42:10;;;;;;;1.70;1.33;;;20.00;99.90;;;;;;5011883;28;20482;-67
2022/09/17 11:44:47;;;;;;;1.20;1.03;;;20.00;99.90;;;;;;5011966;28;20456;-67
2022/09/17 11:47:17;;;;;;;1.10;0.90;;;20.00;99.90;;;;;;5012001;28;20458;-67
2022/09/17 11:49:51;;;;;;;4.00;1.00;;;20.00;99.90;;;;;;5011971;28;20457;-67
2022/09/17 11:52:22;;;;;;;0.90;0.90;;;20.00;99.90;;;;;;5011214;28;20527;-65
2022/09/17 11:54:57;;;;;;;0.90;0.90;;;20.00;99.90;;;;;;5010841;28;20445;-63
2022/09/17 11:57:27;;;;;;;1.00;1.00;;;20.00;99.90;;;;;;5011541;28;20465;-63
2022/09/17 12:00:02;;;;;;;3.10;0.80;;;20.00;99.90;;;;;;5012015;28;20541;-63
2022/09/17 12:02:43;;;;;;;0.90;0.90;;;20.00;99.90;;;;;;5011577;28;20489;-62
2022/09/17 12:05:15;;;;;;;1.13;0.70;;;20.00;99.90;;;;;;5011718;28;20931;-61
2022/09/17 12:07:50;;;;;;;0.57;0.57;;;20.00;99.90;;;;;;5011960;28;20456;-63
2022/09/17 12:10:35;;;;;;;1.70;1.60;;;20.00;99.90;;;;;;5012218;28;20445;-63
2022/09/17 12:13:10;;;;;;;0.60;0.60;;;20.10;99.90;;;;;;5010554;28;20529;-62
2022/09/17 12:15:42;;;;;;;0.93;0.80;;;20.10;99.90;;;;;;5011423;28;20467;-62
2022/09/17 12:18:21;;;;;;;2.10;0.77;;;20.10;99.90;;;;;;5011729;28;20477;-63
2022/09/17 12:20:52;;;;;;;0.93;0.90;;;20.10;99.90;;;;;;5011808;28;20441;-62
2022/09/17 12:23:26;;;;;;;1.43;1.00;;;20.10;99.90;;;;;;5011570;28;20485;-62
2022/09/17 12:26:01;;;;;;;0.60;0.60;;;20.10;99.90;;;;;;5011426;28;20472;-62
2022/09/17 12:28:35;;;;;;;3.43;0.70;;;20.10;99.90;;;;;;5011658;28;20815;-62
2022/09/17 12:31:10;;;;;;;1.30;0.70;;;20.20;99.90;;;;;;5011749;28;20460;-62
2022/09/17 12:33:41;;;;;;;0.70;0.70;;;20.20;99.90;;;;;;5011756;28;20536;-62
2022/09/17 12:36:18;;;;;;;1.30;1.20;;;20.20;99.90;;;;;;5011361;28;20474;-62
2022/09/17 12:39:17;;;;;;;2.37;0.80;;;20.20;99.90;;;;;;5011686;28;20504;-62
2022/09/17 12:41:54;;;;;;;1.10;0.60;;;20.20;99.90;;;;;;5011366;28;20446;-65
2022/09/17 12:44:45;;;;;;;2.30;0.87;;;20.30;99.90;;;;;;5011236;28;20863;-65
2022/09/17 12:47:45;;;;;;;0.97;0.97;;;20.30;99.90;;;;;;5011804;28;20925;-64
2022/09/17 12:50:20;;;;;;;0.80;0.80;;;20.30;99.90;;;;;;5015367;28;20549;-63
2022/09/17 12:53:01;;;;;;;1.27;1.17;;;20.30;99.90;;;;;;5015245;28;20444;-63
2022/09/17 12:55:42;;;;;;;2.07;1.50;;;20.30;99.90;;;;;;5016308;28;20989;-65
2022/09/17 12:58:24;;;;;;;1.00;0.90;;;20.30;99.90;;;;;;5016122;28;20850;-65
2022/09/17 13:00:58;;;;;;;0.63;0.57;;;20.30;99.90;;;;;;5016279;28;20452;-64
2022/09/17 13:03:31;;;;;;;1.17;0.70;;;20.40;99.90;;;;;;5015192;28;20482;-63
2022/09/17 13:06:30;;;;;;;1.90;0.77;;;20.40;99.90;;;;;;5015790;28;20560;-64
2022/09/17 13:09:41;;;;;;;0.67;0.67;;;20.30;99.90;;;;;;5012698;28;20696;-64
2022/09/17 13:12:14;;;;;;;3.90;0.80;;;20.40;99.90;;;;;;5015347;28;20532;-63
2022/09/17 13:14:57;;;;;;;2.93;0.80;;;20.40;99.90;;;;;;5015731;28;20472;-63
2022/09/17 13:17:33;;;;;;;0.57;0.50;;;20.40;99.90;;;;;;5015474;28;20568;-63
2022/09/17 13:20:05;;;;;;;2.10;0.67;;;20.40;99.90;;;;;;5015857;28;20453;-62
2022/09/17 13:22:42;;;;;;;0.87;0.63;;;20.40;99.90;;;;;;5015560;28;20520;-64
2022/09/17 13:25:12;;;;;;;2.33;1.63;;;20.40;99.90;;;;;;5015683;28;20446;-64
2022/09/17 13:27:40;;;;;;;0.60;0.60;;;20.50;99.90;;;;;;5015574;28;20557;-64
2022/09/17 13:30:09;;;;;;;1.50;1.30;;;20.50;99.90;;;;;;5015368;28;20545;-64
2022/09/17 13:32:43;;;;;;;0.83;0.83;;;20.50;99.90;;;;;;5014977;28;20446;-64
2022/09/17 13:35:49;;;;;;;0.90;0.70;;;20.50;99.90;;;;;;5015205;28;20446;-63
2022/09/17 13:38:20;;;;;;;1.00;0.97;;;20.60;99.90;;;;;;5015350;28;20782;-64
2022/09/17 13:40:47;;;;;;;1.07;1.07;;;20.60;99.90;;;;;;5015016;28;20454;-63
2022/09/17 13:43:18;;;;;;;3.23;0.77;;;20.50;99.90;;;;;;5015775;28;20569;-67
2022/09/17 13:46:11;;;;;;;0.53;0.53;;;20.60;99.90;;;;;;5016201;28;20891;-66
2022/09/17 13:48:53;;;;;;;1.33;0.97;;;20.60;99.90;;;;;;5015288;28;20536;-66
2022/09/17 13:51:48;;;;;;;6.13;1.10;;;20.60;99.90;;;;;;5016558;28;20456;-66
2022/09/17 13:54:20;;;;;;;0.70;0.70;;;20.60;99.90;;;;;;5016988;28;20504;-66
2022/09/17 13:57:02;;;;;;;1.70;0.70;;;20.60;99.90;;;;;;5015975;28;20465;-65
2022/09/17 13:59:30;;;;;;;1.07;0.60;;;20.60;99.90;;;;;;5014169;28;20461;-66
2022/09/17 14:02:02;;;;;;;1.37;0.70;;;20.60;99.90;;;;;;5015918;28;20461;-67
2022/09/17 14:04:54;;;;;;;1.60;1.20;;;20.60;99.90;;;;;;5015342;28;20492;-67
2022/09/17 14:07:35;;;;;;;3.33;0.87;;;20.60;99.90;;;;;;5009753;28;20481;-66
2022/09/17 14:10:17;;;;;;;0.57;0.57;;;20.60;99.90;;;;;;5016492;28;20943;-65
2022/09/17 14:13:10;;;;;;;2.20;1.00;;;20.60;99.90;;;;;;5013079;28;20452;-66
2022/09/17 14:16:01;;;;;;;1.43;0.60;;;20.60;99.90;;;;;;5052973;23;20557;-66
2022/09/17 14:18:37;;;;;;;0.97;0.87;;;20.60;99.90;;;;;;4983930;28;20440;-66
2022/09/17 17:33:31;;;;;;;7.60;0.90;;;20.10;97.70;;;;;;5089707;27;20537;-61
2022/09/17 17:36:00;;;;;;;2.53;1.53;;;20.10;98.30;;;;;;5090166;28;20536;-62
2022/09/17 17:38:27;;;;;;;1.13;0.60;;;20.20;98.40;;;;;;5090113;28;20449;-62
2022/09/17 17:41:03;;;;;;;1.47;0.73;;;20.20;98.20;;;;;;5090107;28;20470;-63
2022/09/17 17:43:30;;;;;;;1.80;0.63;;;20.30;98.10;;;;;;5089075;28;20449;-60
2022/09/17 17:45:57;;;;;;;2.23;1.17;;;20.30;98.00;;;;;;5077607;22;20495;-62
2022/09/17 17:48:24;;;;;;;1.20;0.80;;;20.30;97.80;;;;;;5049614;28;20475;-63
2022/09/17 17:50:53;;;;;;;4.20;1.03;;;20.40;97.70;;;;;;5049593;28;20440;-63
2022/09/17 17:53:20;;;;;;;3.13;1.00;;;20.40;97.70;;;;;;5049349;28;20567;-62
2022/09/17 17:55:57;;;;;;;1.43;1.10;;;20.40;97.60;;;;;;5039518;28;20543;-61
2022/09/17 17:58:24;;;;;;;1.00;0.73;;;20.40;97.60;;;;;;5029380;28;20445;-61
2022/09/17 18:00:52;;;;;;;2.23;2.13;;;20.40;97.60;;;;;;5029214;28;20465;-61
2022/09/17 18:03:23;;;;;;;0.80;0.80;;;20.40;97.50;;;;;;5029368;28;20450;-62
2022/09/17 18:05:55;;;;;;;7.67;1.40;;;20.40;97.50;;;;;;5029126;28;20822;-62
2022/09/17 18:08:22;;;;;;;1.33;0.57;;;20.40;97.50;;;;;;5029066;28;20457;-63
2022/09/17 18:10:53;;;;;;;1.87;1.37;;;20.50;97.60;;;;;;5029200;28;20441;-63
2022/09/17 18:13:20;;;;;;;0.80;0.70;;;20.40;97.70;;;;;;5028998;28;20546;-63
2022/09/17 18:15:52;;;;;;;2.50;0.90;;;20.40;97.90;;;;;;5028911;28;21080;-64
2022/09/17 18:18:19;;;;;;;2.43;0.97;;;20.40;98.10;;;;;;5029050;28;20467;-64
2022/09/17 18:20:46;;;;;;;1.53;0.93;;;20.40;98.00;;;;;;5029204;28;20449;-63
2022/09/17 18:23:14;;;;;;;2.83;0.90;;;20.50;98.20;;;;;;5029774;28;20477;-63
2022/09/17 18:25:42;;;;;;;2.57;0.80;;;20.50;98.30;;;;;;5028552;28;20472;-63
2022/09/17 18:28:12;;;;;;;4.20;2.03;;;20.50;98.20;;;;;;5029758;28;20524;-64
2022/09/17 18:30:40;;;;;;;0.93;0.93;;;20.50;98.20;;;;;;5029465;28;20446;-64
2022/09/17 18:33:07;;;;;;;0.90;0.90;;;20.50;98.00;;;;;;5029198;28;20473;-65
2022/09/17 18:35:37;;;;;;;1.83;0.70;;;20.50;98.10;;;;;;5028305;28;20561;-65
2022/09/17 18:38:05;;;;;;;0.70;0.70;;;20.50;98.10;;;;;;5028772;28;20448;-64
2022/09/17 18:40:34;;;;;;;0.70;0.70;;;20.50;97.90;;;;;;5028606;28;20445;-62
2022/09/17 18:43:01;;;;;;;1.40;0.60;;;20.50;97.90;;;;;;5025241;28;20532;-64
2022/09/17 18:45:28;;;;;;;4.10;0.70;;;20.50;98.10;;;;;;5015260;28;20470;-64
2022/09/17 18:47:55;;;;;;;4.33;1.03;;;20.50;98.00;;;;;;5014121;28;20450;-65
2022/09/17 18:50:22;;;;;;;2.73;1.00;;;20.50;97.90;;;;;;5012910;28;20518;-64
2022/09/17 18:52:49;;;;;;;0.63;0.63;;;20.50;97.80;;;;;;5014527;28;20478;-67
2022/09/17 18:55:16;;;;;;;2.60;1.00;;;20.50;97.70;;;;;;5015199;28;20994;-67
2022/09/17 18:57:48;;;;;;;1.43;1.00;;;20.60;97.70;;;;;;5014559;28;20956;-68
2022/09/17 19:00:17;;;;;;;1.23;0.77;;;20.60;97.70;;;;;;5015280;28;20528;-67
2022/09/17 19:02:44;;;;;;;1.13;0.60;;;20.60;97.60;;;;;;5014780;28;20529;-67
2022/09/17 19:05:11;;;;;;;0.83;0.83;;;20.50;97.60;;;;;;5014821;28;20493;-69
2022/09/17 19:07:38;;;;;;;0.90;0.90;;;20.50;97.70;;;;;;5014755;28;20449;-68
2022/09/17 19:10:06;;;;;;;1.03;0.93;;;20.50;97.70;;;;;;5014261;28;20537;-68
2022/09/17 19:12:33;;;;;;;0.50;0.50;;;20.50;97.70;;;;;;5014496;28;20904;-67
2022/09/17 19:15:01;;;;;;;0.97;0.97;;;20.50;97.80;;;;;;5014812;28;20493;-67
2022/09/17 19:17:28;;;;;;;0.93;0.70;;;20.50;97.80;;;;;;5014376;28;20450;-67
2022/09/17 19:19:55;;;;;;;1.80;1.00;;;20.50;97.70;;;;;;5014427;28;20446;-69
2022/09/17 19:22:23;;;;;;;0.80;0.70;;;20.50;97.70;;;;;;5014174;28;20446;-67
2022/09/17 19:24:50;;;;;;;1.43;0.90;;;20.50;97.50;;;;;;5014676;28;20544;-68
2022/09/17 19:27:17;;;;;;;1.53;0.90;;;20.50;97.60;;;;;;5014303;28;20530;-67
2022/09/17 19:29:44;;;;;;;0.83;0.60;;;20.50;97.50;;;;;;5014314;28;20458;-68
2022/09/17 19:32:13;;;;;;;2.30;0.80;;;20.50;97.40;;;;;;5013951;28;20513;-68
2022/09/17 19:34:41;;;;;;;0.70;0.70;;;20.50;97.30;;;;;;5014326;28;20477;-69
2022/09/17 19:37:08;;;;;;;2.97;1.50;;;20.50;97.40;;;;;;5014058;28;20452;-67
2022/09/17 19:39:35;;;;;;;0.80;0.73;;;20.60;97.30;;;;;;5014104;28;20950;-67
2022/09/17 19:42:02;;;;;;;1.97;1.00;;;20.60;97.20;;;;;;5013999;28;20446;-66
2022/09/17 19:44:29;;;;;;;1.30;0.93;;;20.60;97.20;;;;;;5013972;28;20480;-67
2022/09/17 19:46:56;;;;;;;1.63;0.70;;;20.60;97.10;;;;;;5014146;28;21011;-68
2022/09/17 19:49:25;;;;;;;1.70;1.07;;;20.60;97.00;;;;;;5013703;28;20442;-67
2022/09/17 19:51:52;;;;;;;1.07;1.03;;;20.60;96.80;;;;;;5013596;28;20497;-66
2022/09/17 19:54:19;;;;;;;1.20;1.00;;;20.60;96.90;;;;;;5013584;28;20470;-66
2022/09/17 19:56:46;;;;;;;1.37;1.10;;;20.60;96.90;;;;;;5013102;28;20477;-66
2022/09/17 19:59:13;;;;;;;1.03;0.97;;;20.60;96.70;;;;;;5013697;28;20441;-66
2022/09/17 20:01:40;;;;;;;1.70;1.60;;;20.60;96.60;;;;;;5013383;28;20569;-64
2022/09/17 20:04:07;;;;;;;0.70;0.70;;;20.60;96.60;;;;;;5013916;28;20512;-68
2022/09/17 20:06:36;;;;;;;1.60;0.90;;;20.60;96.60;;;;;;5013930;28;20450;-68
2022/09/17 20:09:03;;;;;;;2.10;0.90;;;20.60;96.60;;;;;;5013817;28;20465;-69
2022/09/17 20:11:30;;;;;;;0.90;0.80;;;20.60;96.50;;;;;;5013609;28;20862;-69
2022/09/17 20:14:01;;;;;;;1.00;0.60;;;20.60;96.50;;;;;;5013562;28;20895;-68
2022/09/17 20:16:29;;;;;;;0.70;0.70;;;20.60;96.40;;;;;;5013666;28;20461;-70
2022/09/17 20:18:56;;;;;;;1.70;0.50;;;20.60;96.40;;;;;;5013617;28;20524;-65
2022/09/17 20:21:25;;;;;;;1.23;0.70;;;20.60;96.40;;;;;;5013348;28;20491;-69
2022/09/17 20:23:54;;;;;;;0.87;0.87;;;20.60;96.20;;;;;;5013276;28;20529;-72
2022/09/17 20:26:21;;;;;;;1.00;0.77;;;20.60;96.60;;;;;;5013698;28;20453;-72
2022/09/17 20:28:51;;;;;;;0.70;0.60;;;20.60;96.60;;;;;;5013900;28;20445;-72
2022/09/17 20:31:19;;;;;;;0.87;0.67;;;20.60;96.40;;;;;;5013363;28;20458;-70
2022/09/17 20:33:47;;;;;;;1.03;0.83;;;20.60;96.30;;;;;;5013310;28;20530;-68
2022/09/17 20:36:16;;;;;;;1.60;0.90;;;20.60;96.30;;;;;;5013492;28;20442;-71
2022/09/17 20:38:43;;;;;;;2.13;0.80;;;20.70;96.60;;;;;;5013519;28;20516;-72
2022/09/17 20:41:13;;;;;;;0.80;0.73;;;20.70;96.20;;;;;;5013274;28;20450;-71
2022/09/17 20:43:42;;;;;;;0.73;0.70;;;20.60;96.20;;;;;;5013303;28;20438;-73
2022/09/17 20:46:11;;;;;;;4.23;0.80;;;20.60;96.10;;;;;;5013067;28;20556;-74
2022/09/17 20:48:39;;;;;;;1.10;0.90;;;20.60;96.10;;;;;;5013431;28;20450;-71
2022/09/17 20:51:10;;;;;;;0.63;0.63;;;20.70;96.00;;;;;;5012975;28;20450;-73
2022/09/17 20:53:37;;;;;;;1.00;0.93;;;20.60;95.90;;;;;;4993471;28;20479;-72
2022/09/17 20:56:06;;;;;;;0.70;0.70;;;20.60;96.00;;;;;;4993641;28;20554;-73
2022/09/17 20:58:44;;;;;;;0.60;0.60;;;20.60;96.00;;;;;;4993601;28;20455;-67
2022/09/17 21:01:14;;;;;;;1.13;0.80;;;20.60;95.90;;;;;;4993353;28;20447;-68
2022/09/17 21:03:41;;;;;;;3.23;0.70;;;20.60;95.70;;;;;;4998552;28;20533;-65
2022/09/17 21:06:14;;;;;;;1.13;0.63;;;20.60;95.90;;;;;;5012406;28;20994;-66
2022/09/17 21:08:41;;;;;;;0.80;0.80;;;20.60;96.10;;;;;;5012780;28;20537;-69
2022/09/17 21:11:08;;;;;;;3.58;0.77;;;20.60;96.10;;;;;;5011793;28;20525;-66
2022/09/17 21:13:37;;;;;;;4.27;1.10;;;20.60;95.90;;;;;;5012671;28;20618;-68
2022/09/17 21:16:04;;;;;;;0.73;0.73;;;20.70;95.70;;;;;;5011832;28;20557;-67
2022/09/17 21:18:31;;;;;;;1.10;0.73;;;20.70;95.40;;;;;;5012589;28;20460;-68
2022/09/17 21:21:01;;;;;;;0.97;0.60;;;20.70;95.30;;;;;;5012595;28;20537;-69
2022/09/17 21:23:30;;;;;;;1.23;1.10;;;20.70;95.50;;;;;;5012207;28;20445;-67
2022/09/17 21:26:03;;;;;;;0.80;0.80;;;20.70;95.80;;;;;;5012003;28;20476;-65
2022/09/17 21:28:32;;;;;;;1.00;0.70;;;20.60;96.30;;;;;;5012103;28;20473;-65
2022/09/17 21:31:07;;;;;;;1.30;1.20;;;20.60;96.60;;;;;;5011823;28;20453;-64
2022/09/17 21:33:34;;;;;;;1.00;0.87;;;20.60;96.80;;;;;;5011649;28;20843;-65
2022/09/17 21:36:06;;;;;;;2.40;1.27;;;20.70;97.00;;;;;;5012064;28;20827;-63
2022/09/17 21:38:33;;;;;;;0.70;0.70;;;20.70;97.20;;;;;;5011949;28;20532;-64
2022/09/17 21:41:02;;;;;;;1.83;1.73;;;20.70;97.50;;;;;;5011689;28;20449;-65
2022/09/17 21:43:30;;;;;;;2.50;1.10;;;20.70;97.60;;;;;;5011599;28;20481;-64
